Moosonee, Canada
Current Conditions -  °F | °C
As of 8:00 AM on Sunday 23 Nov 2014 (Local Time) from CYMO Reporting Station
Overcast Overcast  
Wind Chill: -15°   Ceiling: 14000
Heat Index: -15°   Visibility: 9mi
Dew Point: -16°   Wind: 3mph
Humidity: 92%   Direction: 150°SSE
Pressure: 29.91"   Gusts: NA
Location:  51.27°N, 80.64°W
Report Text: CYMO 231300Z AUTO 15003KT 9SM BKN140 OVC200 M15/M16 A2991 RMK SLP130
Loading
Personal Weather Stations






























Interactive Weather Map New forecast layout! Learn more

10-Day Weather Forecast

Advertisements
Track Severe Weather on mobile